sensor_id;sensor_type;location;lat;lon;timestamp;P1;durP1;ratioP1;P2;durP2;ratioP2
17151;SDS011;8691;50.828;4.700;2022-10-31T00:01:20;14.75;;;11.80;;
17151;SDS011;8691;50.828;4.700;2022-10-31T00:03:45;15.45;;;11.43;;
17151;SDS011;8691;50.828;4.700;2022-10-31T00:06:12;14.10;;;11.57;;
17151;SDS011;8691;50.828;4.700;2022-10-31T00:08:39;16.10;;;12.03;;
17151;SDS011;8691;50.828;4.700;2022-10-31T00:11:10;13.73;;;9.53;;
17151;SDS011;8691;50.828;4.700;2022-10-31T00:13:37;14.62;;;11.05;;
17151;SDS011;8691;50.828;4.700;2022-10-31T00:16:04;12.80;;;9.33;;
17151;SDS011;8691;50.828;4.700;2022-10-31T00:18:32;14.93;;;10.20;;
17151;SDS011;8691;50.828;4.700;2022-10-31T00:21:01;15.10;;;8.83;;
17151;SDS011;8691;50.828;4.700;2022-10-31T00:23:28;12.20;;;10.00;;
17151;SDS011;8691;50.828;4.700;2022-10-31T00:26:05;13.07;;;11.27;;
17151;SDS011;8691;50.828;4.700;2022-10-31T00:28:29;13.47;;;9.93;;
17151;SDS011;8691;50.828;4.700;2022-10-31T00:30:59;14.30;;;10.60;;
17151;SDS011;8691;50.828;4.700;2022-10-31T00:33:25;12.90;;;10.27;;
17151;SDS011;8691;50.828;4.700;2022-10-31T00:35:53;14.05;;;10.75;;
17151;SDS011;8691;50.828;4.700;2022-10-31T00:38:20;13.62;;;11.15;;
17151;SDS011;8691;50.828;4.700;2022-10-31T00:40:47;15.07;;;9.77;;
17151;SDS011;8691;50.828;4.700;2022-10-31T00:43:14;13.07;;;9.43;;
17151;SDS011;8691;50.828;4.700;2022-10-31T00:45:41;18.30;;;12.50;;
17151;SDS011;8691;50.828;4.700;2022-10-31T00:48:08;16.58;;;11.88;;
17151;SDS011;8691;50.828;4.700;2022-10-31T00:50:34;13.38;;;11.27;;
17151;SDS011;8691;50.828;4.700;2022-10-31T00:53:03;16.12;;;11.48;;
17151;SDS011;8691;50.828;4.700;2022-10-31T00:55:29;12.77;;;9.47;;
17151;SDS011;8691;50.828;4.700;2022-10-31T00:57:57;12.70;;;9.80;;
17151;SDS011;8691;50.828;4.700;2022-10-31T01:00:24;12.07;;;9.70;;
17151;SDS011;8691;50.828;4.700;2022-10-31T01:02:52;15.20;;;11.55;;
17151;SDS011;8691;50.828;4.700;2022-10-31T01:05:19;15.52;;;11.60;;
17151;SDS011;8691;50.828;4.700;2022-10-31T01:07:45;14.63;;;10.10;;
17151;SDS011;8691;50.828;4.700;2022-10-31T01:10:13;13.95;;;11.35;;
17151;SDS011;8691;50.828;4.700;2022-10-31T01:12:45;13.40;;;11.60;;
17151;SDS011;8691;50.828;4.700;2022-10-31T01:15:11;14.35;;;11.32;;
17151;SDS011;8691;50.828;4.700;2022-10-31T01:17:38;12.50;;;10.85;;
17151;SDS011;8691;50.828;4.700;2022-10-31T01:20:05;11.60;;;9.40;;
17151;SDS011;8691;50.828;4.700;2022-10-31T01:22:31;11.95;;;10.62;;
17151;SDS011;8691;50.828;4.700;2022-10-31T01:24:58;12.17;;;10.20;;
17151;SDS011;8691;50.828;4.700;2022-10-31T01:27:25;13.68;;;11.10;;
17151;SDS011;8691;50.828;4.700;2022-10-31T01:29:52;12.70;;;10.40;;
17151;SDS011;8691;50.828;4.700;2022-10-31T01:32:19;12.73;;;10.15;;
17151;SDS011;8691;50.828;4.700;2022-10-31T01:34:46;11.43;;;8.90;;
17151;SDS011;8691;50.828;4.700;2022-10-31T01:37:14;11.53;;;8.90;;
17151;SDS011;8691;50.828;4.700;2022-10-31T01:39:40;11.27;;;8.40;;
17151;SDS011;8691;50.828;4.700;2022-10-31T01:42:09;13.65;;;10.77;;
17151;SDS011;8691;50.828;4.700;2022-10-31T01:47:08;13.48;;;10.25;;
17151;SDS011;8691;50.828;4.700;2022-10-31T01:49:34;14.15;;;10.90;;
17151;SDS011;8691;50.828;4.700;2022-10-31T01:52:04;12.47;;;9.50;;
17151;SDS011;8691;50.828;4.700;2022-10-31T01:54:32;10.18;;;7.68;;
17151;SDS011;8691;50.828;4.700;2022-10-31T01:56:58;11.80;;;10.23;;
17151;SDS011;8691;50.828;4.700;2022-10-31T01:59:25;13.15;;;10.60;;
17151;SDS011;8691;50.828;4.700;2022-10-31T02:01:51;13.07;;;9.70;;
17151;SDS011;8691;50.828;4.700;2022-10-31T02:04:18;11.13;;;8.83;;
17151;SDS011;8691;50.828;4.700;2022-10-31T02:06:46;12.70;;;9.75;;
17151;SDS011;8691;50.828;4.700;2022-10-31T02:09:14;11.82;;;9.57;;
17151;SDS011;8691;50.828;4.700;2022-10-31T02:11:41;11.65;;;9.90;;
17151;SDS011;8691;50.828;4.700;2022-10-31T02:14:07;12.23;;;9.47;;
17151;SDS011;8691;50.828;4.700;2022-10-31T02:16:34;11.17;;;8.77;;
17151;SDS011;8691;50.828;4.700;2022-10-31T02:19:01;12.32;;;9.82;;
17151;SDS011;8691;50.828;4.700;2022-10-31T02:21:42;9.63;;;7.47;;
17151;SDS011;8691;50.828;4.700;2022-10-31T02:37:33;12.17;;;9.77;;
17151;SDS011;8691;50.828;4.700;2022-10-31T02:40:05;9.73;;;8.73;;
17151;SDS011;8691;50.828;4.700;2022-10-31T02:42:42;8.90;;;7.88;;
17151;SDS011;8691;50.828;4.700;2022-10-31T02:45:14;9.40;;;8.40;;
17151;SDS011;8691;50.828;4.700;2022-10-31T02:47:39;10.43;;;7.70;;
17151;SDS011;8691;50.828;4.700;2022-10-31T02:50:06;11.87;;;9.17;;
17151;SDS011;8691;50.828;4.700;2022-10-31T02:52:33;10.63;;;9.43;;
17151;SDS011;8691;50.828;4.700;2022-10-31T02:55:47;12.77;;;10.27;;
17151;SDS011;8691;50.828;4.700;2022-10-31T02:57:34;10.37;;;9.10;;
17151;SDS011;8691;50.828;4.700;2022-10-31T03:00:03;13.17;;;9.00;;
17151;SDS011;8691;50.828;4.700;2022-10-31T03:02:41;9.98;;;8.98;;
17151;SDS011;8691;50.828;4.700;2022-10-31T03:10:43;10.33;;;9.20;;
17151;SDS011;8691;50.828;4.700;2022-10-31T03:13:31;8.93;;;6.07;;
17151;SDS011;8691;50.828;4.700;2022-10-31T03:16:11;8.65;;;6.88;;
17151;SDS011;8691;50.828;4.700;2022-10-31T03:18:49;9.67;;;8.27;;
17151;SDS011;8691;50.828;4.700;2022-10-31T03:21:16;10.25;;;7.97;;
17151;SDS011;8691;50.828;4.700;2022-10-31T03:23:41;8.68;;;7.50;;
17151;SDS011;8691;50.828;4.700;2022-10-31T03:26:08;9.17;;;7.40;;
17151;SDS011;8691;50.828;4.700;2022-10-31T03:28:40;9.80;;;7.80;;
17151;SDS011;8691;50.828;4.700;2022-10-31T03:31:05;9.20;;;7.53;;
17151;SDS011;8691;50.828;4.700;2022-10-31T03:33:32;9.50;;;7.40;;
17151;SDS011;8691;50.828;4.700;2022-10-31T03:35:59;10.48;;;8.40;;
17151;SDS011;8691;50.828;4.700;2022-10-31T03:38:26;10.97;;;8.70;;
17151;SDS011;8691;50.828;4.700;2022-10-31T03:40:53;11.27;;;8.23;;
17151;SDS011;8691;50.828;4.700;2022-10-31T03:43:22;9.40;;;8.10;;
17151;SDS011;8691;50.828;4.700;2022-10-31T03:45:47;9.48;;;7.53;;
17151;SDS011;8691;50.828;4.700;2022-10-31T03:48:14;8.87;;;6.77;;
17151;SDS011;8691;50.828;4.700;2022-10-31T03:53:23;8.67;;;7.20;;
17151;SDS011;8691;50.828;4.700;2022-10-31T03:55:52;8.65;;;7.75;;
17151;SDS011;8691;50.828;4.700;2022-10-31T03:58:21;9.13;;;6.77;;
17151;SDS011;8691;50.828;4.700;2022-10-31T04:00:50;10.70;;;8.00;;
17151;SDS011;8691;50.828;4.700;2022-10-31T04:03:22;9.50;;;8.33;;
17151;SDS011;8691;50.828;4.700;2022-10-31T04:05:48;10.77;;;6.60;;
17151;SDS011;8691;50.828;4.700;2022-10-31T04:08:18;9.33;;;7.77;;
17151;SDS011;8691;50.828;4.700;2022-10-31T04:10:44;10.87;;;8.20;;
17151;SDS011;8691;50.828;4.700;2022-10-31T04:13:12;9.13;;;7.83;;
17151;SDS011;8691;50.828;4.700;2022-10-31T04:15:38;11.17;;;8.23;;
17151;SDS011;8691;50.828;4.700;2022-10-31T04:18:05;13.20;;;8.77;;
17151;SDS011;8691;50.828;4.700;2022-10-31T04:20:33;9.00;;;7.13;;
17151;SDS011;8691;50.828;4.700;2022-10-31T04:22:59;11.50;;;8.10;;
17151;SDS011;8691;50.828;4.700;2022-10-31T04:25:25;12.07;;;8.95;;
17151;SDS011;8691;50.828;4.700;2022-10-31T04:27:52;11.00;;;9.80;;
17151;SDS011;8691;50.828;4.700;2022-10-31T04:30:19;13.95;;;10.10;;
17151;SDS011;8691;50.828;4.700;2022-10-31T04:32:46;12.00;;;7.73;;
17151;SDS011;8691;50.828;4.700;2022-10-31T04:35:13;10.75;;;9.12;;
17151;SDS011;8691;50.828;4.700;2022-10-31T04:37:39;11.03;;;7.67;;
17151;SDS011;8691;50.828;4.700;2022-10-31T04:40:06;10.18;;;8.88;;
17151;SDS011;8691;50.828;4.700;2022-10-31T04:42:33;9.80;;;8.80;;
17151;SDS011;8691;50.828;4.700;2022-10-31T04:45:00;11.17;;;7.90;;
17151;SDS011;8691;50.828;4.700;2022-10-31T04:47:27;10.55;;;8.60;;
17151;SDS011;8691;50.828;4.700;2022-10-31T04:49:54;10.15;;;9.07;;
17151;SDS011;8691;50.828;4.700;2022-10-31T04:52:21;11.43;;;8.60;;
17151;SDS011;8691;50.828;4.700;2022-10-31T04:54:49;10.67;;;9.07;;
17151;SDS011;8691;50.828;4.700;2022-10-31T04:57:16;10.10;;;7.17;;
17151;SDS011;8691;50.828;4.700;2022-10-31T04:59:43;9.80;;;7.47;;
17151;SDS011;8691;50.828;4.700;2022-10-31T05:02:10;10.73;;;8.70;;
17151;SDS011;8691;50.828;4.700;2022-10-31T05:04:37;10.25;;;8.45;;
17151;SDS011;8691;50.828;4.700;2022-10-31T05:07:04;9.77;;;8.77;;
17151;SDS011;8691;50.828;4.700;2022-10-31T05:09:31;12.95;;;8.90;;
17151;SDS011;8691;50.828;4.700;2022-10-31T05:11:57;14.55;;;10.15;;
17151;SDS011;8691;50.828;4.700;2022-10-31T05:14:24;14.73;;;10.55;;
17151;SDS011;8691;50.828;4.700;2022-10-31T05:16:51;12.30;;;9.57;;
17151;SDS011;8691;50.828;4.700;2022-10-31T05:19:19;11.17;;;8.87;;
17151;SDS011;8691;50.828;4.700;2022-10-31T05:21:46;13.53;;;9.30;;
17151;SDS011;8691;50.828;4.700;2022-10-31T05:24:12;12.47;;;8.20;;
17151;SDS011;8691;50.828;4.700;2022-10-31T05:26:39;13.77;;;9.30;;
17151;SDS011;8691;50.828;4.700;2022-10-31T05:29:07;10.67;;;6.93;;
17151;SDS011;8691;50.828;4.700;2022-10-31T05:31:33;13.20;;;9.23;;
17151;SDS011;8691;50.828;4.700;2022-10-31T05:34:00;10.80;;;9.62;;
17151;SDS011;8691;50.828;4.700;2022-10-31T05:36:28;11.07;;;8.20;;
17151;SDS011;8691;50.828;4.700;2022-10-31T05:38:55;10.13;;;7.50;;
17151;SDS011;8691;50.828;4.700;2022-10-31T05:41:22;13.20;;;9.50;;
17151;SDS011;8691;50.828;4.700;2022-10-31T05:43:49;14.32;;;11.35;;
17151;SDS011;8691;50.828;4.700;2022-10-31T05:46:16;15.00;;;10.50;;
17151;SDS011;8691;50.828;4.700;2022-10-31T05:48:42;9.90;;;8.80;;
17151;SDS011;8691;50.828;4.700;2022-10-31T05:51:09;14.23;;;10.43;;
17151;SDS011;8691;50.828;4.700;2022-10-31T05:53:36;12.45;;;10.02;;
17151;SDS011;8691;50.828;4.700;2022-10-31T05:56:03;14.67;;;8.63;;
17151;SDS011;8691;50.828;4.700;2022-10-31T05:58:30;13.75;;;10.80;;
17151;SDS011;8691;50.828;4.700;2022-10-31T06:00:56;16.40;;;12.40;;
17151;SDS011;8691;50.828;4.700;2022-10-31T06:03:23;11.33;;;10.13;;
17151;SDS011;8691;50.828;4.700;2022-10-31T06:05:50;15.57;;;11.80;;
17151;SDS011;8691;50.828;4.700;2022-10-31T06:08:18;15.62;;;11.77;;
17151;SDS011;8691;50.828;4.700;2022-10-31T06:10:45;14.30;;;9.70;;
17151;SDS011;8691;50.828;4.700;2022-10-31T06:13:12;11.00;;;9.37;;
17151;SDS011;8691;50.828;4.700;2022-10-31T06:15:38;14.70;;;11.77;;
17151;SDS011;8691;50.828;4.700;2022-10-31T06:18:05;13.43;;;11.80;;
17151;SDS011;8691;50.828;4.700;2022-10-31T06:20:33;13.60;;;10.13;;
17151;SDS011;8691;50.828;4.700;2022-10-31T06:23:00;13.30;;;9.00;;
17151;SDS011;8691;50.828;4.700;2022-10-31T06:25:28;14.40;;;11.93;;
17151;SDS011;8691;50.828;4.700;2022-10-31T06:27:55;14.00;;;11.97;;
17151;SDS011;8691;50.828;4.700;2022-10-31T06:30:22;12.95;;;10.40;;
17151;SDS011;8691;50.828;4.700;2022-10-31T06:32:49;12.37;;;10.83;;
17151;SDS011;8691;50.828;4.700;2022-10-31T06:35:16;12.23;;;10.37;;
17151;SDS011;8691;50.828;4.700;2022-10-31T06:37:42;11.95;;;10.75;;
17151;SDS011;8691;50.828;4.700;2022-10-31T06:40:09;14.62;;;11.07;;
17151;SDS011;8691;50.828;4.700;2022-10-31T06:42:37;13.98;;;10.52;;
17151;SDS011;8691;50.828;4.700;2022-10-31T06:45:04;10.00;;;8.67;;
17151;SDS011;8691;50.828;4.700;2022-10-31T06:47:30;13.35;;;10.93;;
17151;SDS011;8691;50.828;4.700;2022-10-31T06:49:57;12.53;;;8.53;;
17151;SDS011;8691;50.828;4.700;2022-10-31T06:52:24;15.48;;;11.30;;
17151;SDS011;8691;50.828;4.700;2022-10-31T06:54:51;11.47;;;9.47;;
17151;SDS011;8691;50.828;4.700;2022-10-31T06:57:17;12.83;;;9.80;;
17151;SDS011;8691;50.828;4.700;2022-10-31T06:59:44;13.45;;;11.73;;
17151;SDS011;8691;50.828;4.700;2022-10-31T07:02:11;13.20;;;11.10;;
17151;SDS011;8691;50.828;4.700;2022-10-31T07:04:38;12.93;;;10.38;;
17151;SDS011;8691;50.828;4.700;2022-10-31T07:07:04;12.60;;;9.63;;
17151;SDS011;8691;50.828;4.700;2022-10-31T07:09:31;15.18;;;12.75;;
17151;SDS011;8691;50.828;4.700;2022-10-31T07:11:58;12.33;;;9.73;;
17151;SDS011;8691;50.828;4.700;2022-10-31T07:14:25;13.73;;;9.57;;
17151;SDS011;8691;50.828;4.700;2022-10-31T07:16:51;16.30;;;11.68;;
17151;SDS011;8691;50.828;4.700;2022-10-31T07:19:18;13.57;;;9.73;;
17151;SDS011;8691;50.828;4.700;2022-10-31T07:21:45;14.40;;;12.70;;
17151;SDS011;8691;50.828;4.700;2022-10-31T07:24:12;13.87;;;10.50;;
17151;SDS011;8691;50.828;4.700;2022-10-31T07:26:39;13.30;;;9.97;;
17151;SDS011;8691;50.828;4.700;2022-10-31T07:29:06;16.40;;;12.75;;
17151;SDS011;8691;50.828;4.700;2022-10-31T07:31:33;18.77;;;13.07;;
17151;SDS011;8691;50.828;4.700;2022-10-31T07:34:00;15.12;;;12.07;;
17151;SDS011;8691;50.828;4.700;2022-10-31T07:36:26;12.40;;;10.87;;
17151;SDS011;8691;50.828;4.700;2022-10-31T07:38:53;14.10;;;12.67;;
17151;SDS011;8691;50.828;4.700;2022-10-31T07:41:20;15.60;;;11.98;;
17151;SDS011;8691;50.828;4.700;2022-10-31T07:43:47;15.95;;;11.35;;
17151;SDS011;8691;50.828;4.700;2022-10-31T07:46:14;16.67;;;11.82;;
17151;SDS011;8691;50.828;4.700;2022-10-31T07:48:42;15.30;;;11.48;;
17151;SDS011;8691;50.828;4.700;2022-10-31T07:51:08;15.85;;;11.80;;
17151;SDS011;8691;50.828;4.700;2022-10-31T07:53:35;14.43;;;11.90;;
17151;SDS011;8691;50.828;4.700;2022-10-31T07:56:02;18.02;;;11.85;;
17151;SDS011;8691;50.828;4.700;2022-10-31T07:58:29;14.45;;;11.48;;
17151;SDS011;8691;50.828;4.700;2022-10-31T08:00:57;15.57;;;11.07;;
17151;SDS011;8691;50.828;4.700;2022-10-31T08:03:23;15.65;;;11.12;;
17151;SDS011;8691;50.828;4.700;2022-10-31T08:05:50;16.83;;;11.00;;
17151;SDS011;8691;50.828;4.700;2022-10-31T08:08:16;15.07;;;10.73;;
17151;SDS011;8691;50.828;4.700;2022-10-31T08:10:43;12.17;;;9.40;;
17151;SDS011;8691;50.828;4.700;2022-10-31T08:13:11;13.45;;;11.18;;
17151;SDS011;8691;50.828;4.700;2022-10-31T08:15:37;11.27;;;9.27;;
17151;SDS011;8691;50.828;4.700;2022-10-31T08:18:04;13.77;;;11.32;;
17151;SDS011;8691;50.828;4.700;2022-10-31T08:20:31;12.75;;;11.43;;
17151;SDS011;8691;50.828;4.700;2022-10-31T08:23:00;13.73;;;11.87;;
17151;SDS011;8691;50.828;4.700;2022-10-31T08:25:26;13.93;;;12.43;;
17151;SDS011;8691;50.828;4.700;2022-10-31T08:27:54;15.07;;;13.40;;
17151;SDS011;8691;50.828;4.700;2022-10-31T08:30:22;17.62;;;13.32;;
17151;SDS011;8691;50.828;4.700;2022-10-31T08:32:58;16.57;;;12.93;;
17151;SDS011;8691;50.828;4.700;2022-10-31T08:35:24;15.10;;;12.57;;
17151;SDS011;8691;50.828;4.700;2022-10-31T08:37:52;14.55;;;12.90;;
17151;SDS011;8691;50.828;4.700;2022-10-31T08:40:18;14.85;;;12.85;;
17151;SDS011;8691;50.828;4.700;2022-10-31T08:42:45;14.73;;;12.88;;
17151;SDS011;8691;50.828;4.700;2022-10-31T08:45:12;12.77;;;10.93;;
17151;SDS011;8691;50.828;4.700;2022-10-31T08:47:40;15.65;;;12.95;;
17151;SDS011;8691;50.828;4.700;2022-10-31T08:50:07;14.67;;;11.40;;
17151;SDS011;8691;50.828;4.700;2022-10-31T08:52:34;14.12;;;12.55;;
17151;SDS011;8691;50.828;4.700;2022-10-31T08:55:01;14.83;;;10.93;;
17151;SDS011;8691;50.828;4.700;2022-10-31T08:57:28;11.77;;;10.60;;
17151;SDS011;8691;50.828;4.700;2022-10-31T08:59:54;15.12;;;12.57;;
17151;SDS011;8691;50.828;4.700;2022-10-31T09:02:21;12.65;;;11.30;;
17151;SDS011;8691;50.828;4.700;2022-10-31T09:04:48;11.70;;;9.63;;
17151;SDS011;8691;50.828;4.700;2022-10-31T09:07:15;13.07;;;10.98;;
17151;SDS011;8691;50.828;4.700;2022-10-31T09:09:42;12.37;;;9.30;;
17151;SDS011;8691;50.828;4.700;2022-10-31T09:12:10;14.60;;;10.38;;
17151;SDS011;8691;50.828;4.700;2022-10-31T09:14:37;12.30;;;10.40;;
17151;SDS011;8691;50.828;4.700;2022-10-31T09:17:04;14.57;;;10.20;;
17151;SDS011;8691;50.828;4.700;2022-10-31T09:19:31;15.20;;;10.10;;
17151;SDS011;8691;50.828;4.700;2022-10-31T09:21:57;12.43;;;9.20;;
17151;SDS011;8691;50.828;4.700;2022-10-31T09:24:24;11.45;;;9.80;;
17151;SDS011;8691;50.828;4.700;2022-10-31T09:26:52;10.75;;;9.62;;
17151;SDS011;8691;50.828;4.700;2022-10-31T09:29:18;13.93;;;9.87;;
17151;SDS011;8691;50.828;4.700;2022-10-31T09:31:45;11.38;;;9.23;;
17151;SDS011;8691;50.828;4.700;2022-10-31T09:34:12;12.73;;;9.60;;
17151;SDS011;8691;50.828;4.700;2022-10-31T09:36:40;10.73;;;8.37;;
17151;SDS011;8691;50.828;4.700;2022-10-31T09:39:06;12.50;;;9.50;;
17151;SDS011;8691;50.828;4.700;2022-10-31T09:41:44;12.48;;;9.48;;
17151;SDS011;8691;50.828;4.700;2022-10-31T09:44:21;13.65;;;10.20;;
17151;SDS011;8691;50.828;4.700;2022-10-31T09:47:26;13.17;;;8.27;;
17151;SDS011;8691;50.828;4.700;2022-10-31T09:50:14;14.55;;;9.73;;
17151;SDS011;8691;50.828;4.700;2022-10-31T09:52:34;13.98;;;9.80;;
17151;SDS011;8691;50.828;4.700;2022-10-31T09:55:03;13.40;;;9.70;;
17151;SDS011;8691;50.828;4.700;2022-10-31T09:57:45;13.05;;;9.35;;
17151;SDS011;8691;50.828;4.700;2022-10-31T10:00:18;15.75;;;9.80;;
17151;SDS011;8691;50.828;4.700;2022-10-31T10:05:33;13.90;;;8.27;;
17151;SDS011;8691;50.828;4.700;2022-10-31T10:10:51;11.68;;;9.65;;
17151;SDS011;8691;50.828;4.700;2022-10-31T10:24:11;14.40;;;8.00;;
17151;SDS011;8691;50.828;4.700;2022-10-31T10:26:28;14.27;;;9.50;;
17151;SDS011;8691;50.828;4.700;2022-10-31T10:28:54;13.80;;;8.63;;
17151;SDS011;8691;50.828;4.700;2022-10-31T10:31:23;13.50;;;9.30;;
17151;SDS011;8691;50.828;4.700;2022-10-31T10:36:36;14.07;;;9.37;;
17151;SDS011;8691;50.828;4.700;2022-10-31T10:39:20;12.93;;;9.48;;
17151;SDS011;8691;50.828;4.700;2022-10-31T10:41:46;12.23;;;8.30;;
17151;SDS011;8691;50.828;4.700;2022-10-31T10:44:11;12.38;;;9.12;;
17151;SDS011;8691;50.828;4.700;2022-10-31T10:46:42;15.45;;;9.30;;
17151;SDS011;8691;50.828;4.700;2022-10-31T10:54:54;13.82;;;10.25;;
17151;SDS011;8691;50.828;4.700;2022-10-31T11:00:32;12.50;;;9.73;;
17151;SDS011;8691;50.828;4.700;2022-10-31T11:02:58;13.27;;;9.97;;
17151;SDS011;8691;50.828;4.700;2022-10-31T11:08:35;14.62;;;9.20;;
17151;SDS011;8691;50.828;4.700;2022-10-31T11:11:08;13.68;;;10.30;;
17151;SDS011;8691;50.828;4.700;2022-10-31T11:13:32;14.70;;;10.65;;
17151;SDS011;8691;50.828;4.700;2022-10-31T11:16:06;14.75;;;10.55;;
17151;SDS011;8691;50.828;4.700;2022-10-31T11:18:32;13.75;;;10.30;;
17151;SDS011;8691;50.828;4.700;2022-10-31T11:20:59;13.85;;;10.52;;
17151;SDS011;8691;50.828;4.700;2022-10-31T11:23:26;15.37;;;9.70;;
17151;SDS011;8691;50.828;4.700;2022-10-31T11:26:04;14.30;;;10.30;;
17151;SDS011;8691;50.828;4.700;2022-10-31T11:28:31;14.77;;;10.55;;
17151;SDS011;8691;50.828;4.700;2022-10-31T11:31:24;17.97;;;10.57;;
17151;SDS011;8691;50.828;4.700;2022-10-31T11:33:37;14.02;;;10.85;;
17151;SDS011;8691;50.828;4.700;2022-10-31T11:36:09;14.82;;;10.20;;
17151;SDS011;8691;50.828;4.700;2022-10-31T11:38:35;14.98;;;10.80;;
17151;SDS011;8691;50.828;4.700;2022-10-31T11:43:39;14.27;;;9.87;;
17151;SDS011;8691;50.828;4.700;2022-10-31T11:46:12;15.57;;;10.75;;
17151;SDS011;8691;50.828;4.700;2022-10-31T11:48:35;15.32;;;10.32;;
17151;SDS011;8691;50.828;4.700;2022-10-31T11:51:02;14.75;;;10.60;;
17151;SDS011;8691;50.828;4.700;2022-10-31T11:53:30;15.95;;;10.50;;
17151;SDS011;8691;50.828;4.700;2022-10-31T11:56:10;13.10;;;9.97;;
17151;SDS011;8691;50.828;4.700;2022-10-31T11:58:32;15.03;;;9.83;;
17151;SDS011;8691;50.828;4.700;2022-10-31T12:00:59;15.23;;;10.32;;
17151;SDS011;8691;50.828;4.700;2022-10-31T12:06:07;12.47;;;8.03;;
17151;SDS011;8691;50.828;4.700;2022-10-31T12:08:42;14.20;;;9.17;;
17151;SDS011;8691;50.828;4.700;2022-10-31T12:11:15;14.40;;;9.70;;
17151;SDS011;8691;50.828;4.700;2022-10-31T12:13:51;12.23;;;9.45;;
17151;SDS011;8691;50.828;4.700;2022-10-31T12:16:20;14.57;;;9.02;;
17151;SDS011;8691;50.828;4.700;2022-10-31T12:18:53;16.52;;;8.88;;
17151;SDS011;8691;50.828;4.700;2022-10-31T12:21:28;13.77;;;8.60;;
17151;SDS011;8691;50.828;4.700;2022-10-31T12:29:34;13.52;;;7.95;;
17151;SDS011;8691;50.828;4.700;2022-10-31T12:32:15;10.80;;;7.10;;
17151;SDS011;8691;50.828;4.700;2022-10-31T12:37:53;10.40;;;5.70;;
17151;SDS011;8691;50.828;4.700;2022-10-31T12:46:19;11.23;;;6.53;;
17151;SDS011;8691;50.828;4.700;2022-10-31T12:49:17;11.30;;;5.88;;
17151;SDS011;8691;50.828;4.700;2022-10-31T13:00:02;10.10;;;5.27;;
17151;SDS011;8691;50.828;4.700;2022-10-31T13:02:32;10.80;;;5.62;;
17151;SDS011;8691;50.828;4.700;2022-10-31T13:04:57;10.40;;;4.80;;
17151;SDS011;8691;50.828;4.700;2022-10-31T13:07:25;13.30;;;5.60;;
17151;SDS011;8691;50.828;4.700;2022-10-31T13:12:44;8.90;;;5.23;;
17151;SDS011;8691;50.828;4.700;2022-10-31T13:15:27;15.57;;;5.75;;
17151;SDS011;8691;50.828;4.700;2022-10-31T13:17:54;12.88;;;5.70;;
17151;SDS011;8691;50.828;4.700;2022-10-31T13:22:48;11.77;;;5.60;;
17151;SDS011;8691;50.828;4.700;2022-10-31T13:25:21;11.60;;;4.97;;
17151;SDS011;8691;50.828;4.700;2022-10-31T13:28:31;11.40;;;6.10;;
17151;SDS011;8691;50.828;4.700;2022-10-31T13:30:34;11.47;;;6.27;;
17151;SDS011;8691;50.828;4.700;2022-10-31T13:33:07;10.52;;;6.78;;
17151;SDS011;8691;50.828;4.700;2022-10-31T13:38:48;12.17;;;6.70;;
17151;SDS011;8691;50.828;4.700;2022-10-31T13:41:18;11.23;;;6.90;;
17151;SDS011;8691;50.828;4.700;2022-10-31T13:48:58;12.18;;;8.48;;
17151;SDS011;8691;50.828;4.700;2022-10-31T13:51:26;12.27;;;8.70;;
17151;SDS011;8691;50.828;4.700;2022-10-31T14:01:37;15.05;;;9.23;;
17151;SDS011;8691;50.828;4.700;2022-10-31T14:04:48;11.67;;;8.40;;
17151;SDS011;8691;50.828;4.700;2022-10-31T14:11:57;14.57;;;10.03;;
17151;SDS011;8691;50.828;4.700;2022-10-31T14:14:25;15.20;;;8.90;;
17151;SDS011;8691;50.828;4.700;2022-10-31T14:16:54;16.52;;;10.43;;
17151;SDS011;8691;50.828;4.700;2022-10-31T14:19:20;11.50;;;8.50;;
17151;SDS011;8691;50.828;4.700;2022-10-31T14:21:48;13.55;;;9.65;;
17151;SDS011;8691;50.828;4.700;2022-10-31T14:26:55;14.50;;;10.00;;
17151;SDS011;8691;50.828;4.700;2022-10-31T14:29:23;14.35;;;9.27;;
17151;SDS011;8691;50.828;4.700;2022-10-31T14:31:52;12.55;;;10.20;;
17151;SDS011;8691;50.828;4.700;2022-10-31T14:34:28;14.52;;;10.05;;
17151;SDS011;8691;50.828;4.700;2022-10-31T14:45:27;14.27;;;10.13;;
17151;SDS011;8691;50.828;4.700;2022-10-31T14:50:48;15.27;;;9.97;;
17151;SDS011;8691;50.828;4.700;2022-10-31T14:53:25;16.60;;;11.20;;
17151;SDS011;8691;50.828;4.700;2022-10-31T14:55:59;15.02;;;11.23;;
17151;SDS011;8691;50.828;4.700;2022-10-31T14:58:28;14.60;;;10.30;;
17151;SDS011;8691;50.828;4.700;2022-10-31T15:00:56;17.42;;;11.00;;
17151;SDS011;8691;50.828;4.700;2022-10-31T15:03:24;16.37;;;11.33;;
17151;SDS011;8691;50.828;4.700;2022-10-31T15:05:50;17.30;;;12.00;;
17151;SDS011;8691;50.828;4.700;2022-10-31T15:08:33;17.73;;;12.38;;
17151;SDS011;8691;50.828;4.700;2022-10-31T15:10:58;16.30;;;12.18;;
17151;SDS011;8691;50.828;4.700;2022-10-31T15:13:25;17.35;;;12.12;;
17151;SDS011;8691;50.828;4.700;2022-10-31T15:15:53;17.35;;;12.50;;
17151;SDS011;8691;50.828;4.700;2022-10-31T15:18:21;18.03;;;12.23;;
17151;SDS011;8691;50.828;4.700;2022-10-31T15:20:52;16.08;;;12.10;;
17151;SDS011;8691;50.828;4.700;2022-10-31T15:23:23;17.70;;;11.47;;
17151;SDS011;8691;50.828;4.700;2022-10-31T15:25:48;18.95;;;12.55;;
17151;SDS011;8691;50.828;4.700;2022-10-31T15:28:21;16.58;;;12.45;;
17151;SDS011;8691;50.828;4.700;2022-10-31T15:30:49;13.87;;;10.63;;
17151;SDS011;8691;50.828;4.700;2022-10-31T15:33:18;15.27;;;10.97;;
17151;SDS011;8691;50.828;4.700;2022-10-31T15:35:54;20.08;;;12.57;;
17151;SDS011;8691;50.828;4.700;2022-10-31T15:38:24;19.38;;;12.93;;
17151;SDS011;8691;50.828;4.700;2022-10-31T15:40:55;18.50;;;12.88;;
17151;SDS011;8691;50.828;4.700;2022-10-31T15:43:23;17.27;;;12.57;;
17151;SDS011;8691;50.828;4.700;2022-10-31T15:45:50;15.20;;;10.70;;
17151;SDS011;8691;50.828;4.700;2022-10-31T15:48:18;17.48;;;11.80;;
17151;SDS011;8691;50.828;4.700;2022-10-31T15:50:54;15.67;;;11.00;;
17151;SDS011;8691;50.828;4.700;2022-10-31T15:53:27;17.45;;;11.00;;
17151;SDS011;8691;50.828;4.700;2022-10-31T15:55:54;15.65;;;10.52;;
17151;SDS011;8691;50.828;4.700;2022-10-31T15:58:19;10.73;;;8.80;;
17151;SDS011;8691;50.828;4.700;2022-10-31T16:00:56;17.62;;;10.02;;
17151;SDS011;8691;50.828;4.700;2022-10-31T16:05:47;13.57;;;8.15;;
17151;SDS011;8691;50.828;4.700;2022-10-31T16:08:26;17.57;;;7.07;;
17151;SDS011;8691;50.828;4.700;2022-10-31T16:10:49;13.10;;;7.40;;
17151;SDS011;8691;50.828;4.700;2022-10-31T16:13:17;13.25;;;7.45;;
17151;SDS011;8691;50.828;4.700;2022-10-31T16:15:51;11.73;;;6.70;;
17151;SDS011;8691;50.828;4.700;2022-10-31T16:18:16;11.47;;;7.10;;
17151;SDS011;8691;50.828;4.700;2022-10-31T16:20:47;14.13;;;6.90;;
17151;SDS011;8691;50.828;4.700;2022-10-31T16:23:14;13.07;;;7.22;;
17151;SDS011;8691;50.828;4.700;2022-10-31T16:25:40;14.43;;;9.12;;
17151;SDS011;8691;50.828;4.700;2022-10-31T16:28:18;13.37;;;8.40;;
17151;SDS011;8691;50.828;4.700;2022-10-31T16:30:41;17.05;;;8.82;;
17151;SDS011;8691;50.828;4.700;2022-10-31T16:35:56;13.82;;;6.60;;
17151;SDS011;8691;50.828;4.700;2022-10-31T16:38:23;9.90;;;5.43;;
17151;SDS011;8691;50.828;4.700;2022-10-31T16:40:51;14.48;;;6.47;;
17151;SDS011;8691;50.828;4.700;2022-10-31T16:43:18;11.30;;;6.73;;
17151;SDS011;8691;50.828;4.700;2022-10-31T16:45:46;11.35;;;6.07;;
17151;SDS011;8691;50.828;4.700;2022-10-31T16:48:12;9.77;;;6.30;;
17151;SDS011;8691;50.828;4.700;2022-10-31T16:50:38;11.37;;;6.10;;
17151;SDS011;8691;50.828;4.700;2022-10-31T16:53:05;12.02;;;6.38;;
17151;SDS011;8691;50.828;4.700;2022-10-31T16:55:32;11.60;;;6.43;;
17151;SDS011;8691;50.828;4.700;2022-10-31T16:57:59;13.62;;;7.10;;
17151;SDS011;8691;50.828;4.700;2022-10-31T17:00:26;11.37;;;6.10;;